Time;durP1;ratioP1;P1;durP2;ratioP2;P2;SDS_P1;SDS_P2;PMS_P1;PMS_P2;Temp;Humidity;BMP_temperature;BMP_pressure;BME280_temperature;BME280_humidity;BME280_pressure;Samples;Min_cycle;Max_cycle;Signal;HPM_P1;HPM_P2
2023/06/21 00:00:31;;;;;;;5.10;2.13;;;14.80;99.90;;;;;;4939250;28;20219;-95
2023/06/21 00:03:04;;;;;;;3.70;2.43;;;14.90;99.90;;;;;;4946545;28;20218;-92
2023/06/21 00:05:38;;;;;;;4.20;1.97;;;14.60;99.90;;;;;;4939619;29;20220;-94
2023/06/21 00:10:44;;;;;;;4.70;1.50;;;14.70;99.90;;;;;;4905788;29;20599;-95
2023/06/21 00:13:16;;;;;;;4.07;2.07;;;14.60;99.90;;;;;;4898693;29;20694;-85
2023/06/21 00:15:47;;;;;;;6.70;2.17;;;14.50;99.90;;;;;;4901399;29;20205;-85
2023/06/21 00:18:18;;;;;;;2.60;1.73;;;14.60;99.90;;;;;;4901456;29;20217;-86
2023/06/21 00:20:49;;;;;;;5.33;1.90;;;14.60;99.90;;;;;;4898691;29;20213;-86
2023/06/21 00:23:20;;;;;;;4.53;1.63;;;14.50;99.90;;;;;;4899482;29;20206;-87
2023/06/21 00:25:52;;;;;;;6.60;1.77;;;14.70;99.90;;;;;;4898859;29;20209;-86
2023/06/21 00:28:24;;;;;;;3.00;1.30;;;14.90;99.90;;;;;;4893150;29;20309;-87
2023/06/21 00:30:55;;;;;;;2.67;1.37;;;14.80;99.90;;;;;;4894432;29;20622;-87
2023/06/21 00:33:26;;;;;;;5.17;1.57;;;15.00;99.90;;;;;;4893853;29;20214;-86
2023/06/21 00:35:57;;;;;;;6.40;1.53;;;15.20;99.90;;;;;;4896212;29;20303;-86
2023/06/21 00:38:29;;;;;;;3.87;1.67;;;15.30;99.90;;;;;;4894739;29;20209;-85
2023/06/21 00:41:04;;;;;;;4.87;1.40;;;15.10;99.90;;;;;;4897556;29;20206;-85
2023/06/21 00:43:35;;;;;;;4.83;1.63;;;15.30;99.90;;;;;;4897774;29;20213;-88
2023/06/21 00:46:06;;;;;;;5.33;1.90;;;15.30;99.90;;;;;;4883491;29;20202;-85
2023/06/21 00:48:38;;;;;;;6.70;1.53;;;15.30;99.90;;;;;;4896101;29;20240;-85
2023/06/21 00:51:14;;;;;;;4.07;1.60;;;15.10;99.90;;;;;;4897895;29;20296;-86
2023/06/21 00:53:45;;;;;;;4.17;1.30;;;15.10;99.90;;;;;;4898028;29;20741;-85
2023/06/21 00:56:18;;;;;;;2.27;1.17;;;14.80;99.90;;;;;;4900738;29;20552;-85
2023/06/21 00:58:49;;;;;;;4.07;1.43;;;15.00;99.90;;;;;;4899593;29;20297;-84
2023/06/21 01:01:20;;;;;;;5.20;1.63;;;14.90;99.90;;;;;;4890560;29;20213;-82
2023/06/21 01:03:51;;;;;;;3.77;1.40;;;14.80;99.90;;;;;;4889661;29;20237;-87
2023/06/21 01:06:29;;;;;;;4.93;1.43;;;15.00;99.90;;;;;;4894897;29;20205;-86
2023/06/21 01:09:07;;;;;;;4.13;1.50;;;15.20;99.90;;;;;;4895925;29;20240;-84
2023/06/21 01:11:59;;;;;;;4.87;1.77;;;15.10;99.90;;;;;;4892084;29;20217;-86
2023/06/21 01:14:39;;;;;;;3.20;1.60;;;15.00;99.90;;;;;;4896709;29;20217;-85
2023/06/21 01:17:13;;;;;;;5.27;2.33;;;15.10;99.90;;;;;;4896932;29;20224;-86
2023/06/21 01:19:50;;;;;;;4.60;1.70;;;15.00;99.90;;;;;;4898411;29;20216;-87
2023/06/21 01:22:41;;;;;;;4.87;1.73;;;14.80;99.90;;;;;;4894444;29;20218;-88
2023/06/21 01:25:24;;;;;;;4.63;1.20;;;14.50;99.90;;;;;;4892288;29;20205;-86
2023/06/21 01:28:12;;;;;;;5.53;1.33;;;14.50;99.90;;;;;;4892715;29;20245;-86
2023/06/21 01:30:46;;;;;;;4.73;1.40;;;14.50;99.90;;;;;;4897953;29;20663;-87
2023/06/21 01:33:18;;;;;;;5.43;1.60;;;14.20;99.90;;;;;;4897323;29;20292;-86
2023/06/21 01:35:52;;;;;;;4.63;1.20;;;14.10;99.90;;;;;;4889854;29;20225;-85
2023/06/21 01:38:23;;;;;;;3.73;1.30;;;14.00;99.90;;;;;;4895960;29;20248;-84
2023/06/21 01:40:54;;;;;;;4.60;1.60;;;13.90;99.90;;;;;;4898877;29;20209;-86
2023/06/21 01:43:26;;;;;;;3.10;1.43;;;13.90;99.90;;;;;;4896887;29;20201;-87
2023/06/21 01:46:01;;;;;;;7.27;1.80;;;13.80;99.90;;;;;;4895206;29;20212;-86
2023/06/21 01:48:35;;;;;;;1.93;1.13;;;13.70;99.90;;;;;;4894654;29;20236;-87
2023/06/21 01:51:08;;;;;;;4.33;1.40;;;13.60;99.90;;;;;;4891630;29;20269;-87
2023/06/21 01:53:39;;;;;;;7.20;1.60;;;13.50;99.90;;;;;;4895791;29;20925;-87
2023/06/21 01:56:14;;;;;;;6.40;1.73;;;13.60;99.90;;;;;;4558378;29;10001080;-88
2023/06/21 01:58:47;;;;;;;3.30;1.27;;;13.50;99.90;;;;;;4897787;29;20212;-87
2023/06/21 02:01:20;;;;;;;3.93;1.60;;;13.50;99.90;;;;;;4891035;29;20224;-81
2023/06/21 02:03:59;;;;;;;2.93;1.30;;;13.60;99.90;;;;;;4893855;29;20213;-87
2023/06/21 02:06:32;;;;;;;4.17;1.43;;;13.70;99.90;;;;;;4894860;29;20224;-85
2023/06/21 02:09:05;;;;;;;2.97;1.40;;;13.60;99.90;;;;;;4889123;29;20284;-85
2023/06/21 02:11:37;;;;;;;3.67;1.60;;;13.60;99.90;;;;;;4903881;29;20219;-86
2023/06/21 02:14:08;;;;;;;6.83;1.67;;;13.60;99.90;;;;;;4898060;29;20658;-86
2023/06/21 02:16:41;;;;;;;5.87;1.60;;;13.70;99.90;;;;;;4897249;29;20213;-84
2023/06/21 02:19:13;;;;;;;6.93;2.07;;;13.70;99.90;;;;;;4893203;29;20206;-86
2023/06/21 02:21:44;;;;;;;4.47;1.90;;;13.50;99.90;;;;;;4895906;29;20296;-87
2023/06/21 02:24:15;;;;;;;5.13;1.60;;;13.50;99.90;;;;;;4898518;29;20228;-86
2023/06/21 02:26:46;;;;;;;2.97;1.63;;;13.50;99.90;;;;;;4896272;29;20217;-86
2023/06/21 02:29:17;;;;;;;3.63;1.57;;;13.50;99.90;;;;;;4893479;29;20240;-87
2023/06/21 02:31:50;;;;;;;5.30;1.60;;;13.60;99.90;;;;;;4897787;29;20214;-85
2023/06/21 02:34:20;;;;;;;3.77;1.83;;;13.50;99.90;;;;;;4895239;29;20225;-85
2023/06/21 02:36:53;;;;;;;4.00;1.63;;;13.50;99.90;;;;;;4898103;29;20217;-86
2023/06/21 02:39:25;;;;;;;5.13;2.30;;;13.60;99.90;;;;;;4891090;29;20293;-85
2023/06/21 02:41:56;;;;;;;5.10;1.73;;;13.50;99.90;;;;;;4893549;29;20689;-84
2023/06/21 02:44:27;;;;;;;5.10;1.93;;;13.60;99.90;;;;;;4888895;29;20214;-84
2023/06/21 02:47:01;;;;;;;4.43;1.83;;;13.50;99.90;;;;;;4902093;29;20666;-84
2023/06/21 02:49:36;;;;;;;4.03;1.40;;;13.50;99.90;;;;;;4898567;29;20243;-84
2023/06/21 02:52:08;;;;;;;5.80;1.90;;;13.60;99.90;;;;;;4896365;29;20218;-84
2023/06/21 02:54:38;;;;;;;4.20;1.53;;;13.70;99.90;;;;;;4900438;29;20214;-85
2023/06/21 02:57:10;;;;;;;5.40;1.83;;;13.60;99.90;;;;;;4895825;29;20217;-86
2023/06/21 02:59:41;;;;;;;3.53;1.50;;;13.40;99.90;;;;;;4896692;29;20220;-84
2023/06/21 03:02:14;;;;;;;6.03;1.63;;;13.50;99.90;;;;;;4897767;29;20214;-85
2023/06/21 03:04:45;;;;;;;2.40;1.27;;;13.40;99.90;;;;;;4907071;29;20312;-84
2023/06/21 03:07:17;;;;;;;4.30;1.50;;;13.40;99.90;;;;;;4896444;29;20206;-85
2023/06/21 03:09:48;;;;;;;3.17;1.73;;;13.30;99.90;;;;;;4887423;29;20649;-86
2023/06/21 03:12:18;;;;;;;3.43;1.67;;;13.40;99.90;;;;;;4899482;29;20636;-84
2023/06/21 03:14:50;;;;;;;4.30;1.70;;;13.30;99.90;;;;;;4906715;29;20261;-84
2023/06/21 03:17:23;;;;;;;6.93;2.80;;;13.30;99.90;;;;;;4901052;29;20213;-85
2023/06/21 03:19:55;;;;;;;4.77;1.70;;;13.30;99.90;;;;;;4899230;29;20210;-86
2023/06/21 03:22:25;;;;;;;4.17;1.80;;;13.30;99.90;;;;;;4899762;29;20206;-85
2023/06/21 03:24:57;;;;;;;4.67;1.87;;;13.30;99.90;;;;;;4897568;29;20206;-85
2023/06/21 03:27:27;;;;;;;3.07;1.50;;;13.30;99.90;;;;;;4896950;29;20570;-86
2023/06/21 03:29:58;;;;;;;2.83;1.50;;;13.30;99.90;;;;;;4897238;29;20245;-86
2023/06/21 03:32:31;;;;;;;4.70;1.70;;;13.30;99.90;;;;;;4893422;29;20754;-86
2023/06/21 03:35:01;;;;;;;2.93;1.40;;;13.30;99.90;;;;;;4902890;29;20564;-86
2023/06/21 03:37:33;;;;;;;3.50;1.60;;;13.30;99.90;;;;;;4897039;29;20218;-86
2023/06/21 03:40:05;;;;;;;2.83;1.53;;;13.30;99.90;;;;;;4892379;29;20214;-85
2023/06/21 03:42:36;;;;;;;3.70;1.70;;;13.30;99.90;;;;;;4897048;29;20214;-85
2023/06/21 03:45:08;;;;;;;2.73;1.60;;;13.30;99.90;;;;;;4891269;29;20217;-86
2023/06/21 03:47:43;;;;;;;3.43;1.60;;;13.20;99.90;;;;;;4895173;29;20655;-84
2023/06/21 03:50:14;;;;;;;3.70;1.50;;;13.20;99.90;;;;;;4896868;29;20577;-85
2023/06/21 03:52:46;;;;;;;6.10;1.87;;;13.20;99.90;;;;;;4894695;29;20292;-85
2023/06/21 03:55:19;;;;;;;4.93;1.47;;;13.20;99.90;;;;;;4896615;29;20285;-85
2023/06/21 03:57:49;;;;;;;2.83;1.43;;;13.20;99.90;;;;;;4895088;29;20546;-85
2023/06/21 04:00:21;;;;;;;3.93;1.60;;;13.20;99.90;;;;;;4895115;29;20616;-86
2023/06/21 04:02:54;;;;;;;2.37;1.30;;;13.20;99.90;;;;;;4886443;29;20210;-85
2023/06/21 04:05:25;;;;;;;3.57;1.50;;;13.20;99.90;;;;;;4893978;29;20201;-84
2023/06/21 04:07:58;;;;;;;3.77;1.57;;;13.20;99.90;;;;;;4898871;29;20570;-86
2023/06/21 04:10:29;;;;;;;2.97;1.57;;;13.20;99.90;;;;;;4895106;29;20267;-86
2023/06/21 04:13:00;;;;;;;5.83;1.57;;;13.20;99.90;;;;;;4895274;29;20213;-84
2023/06/21 04:15:31;;;;;;;4.67;1.63;;;13.10;99.90;;;;;;4894021;29;20245;-85
2023/06/21 04:18:05;;;;;;;2.73;1.40;;;13.10;99.90;;;;;;4896277;29;20292;-85
2023/06/21 04:20:36;;;;;;;2.50;1.40;;;13.10;99.90;;;;;;4895493;29;20210;-85
2023/06/21 04:23:06;;;;;;;4.00;1.60;;;13.00;99.90;;;;;;4896261;29;20210;-85
2023/06/21 04:25:37;;;;;;;3.87;1.70;;;13.10;99.90;;;;;;4900554;29;20206;-85
2023/06/21 04:28:10;;;;;;;4.17;1.60;;;13.10;99.90;;;;;;4896345;29;20639;-86
2023/06/21 04:30:42;;;;;;;3.17;1.53;;;13.00;99.90;;;;;;4891316;29;20243;-86
2023/06/21 04:33:15;;;;;;;2.43;1.47;;;12.90;99.90;;;;;;4896585;29;20903;-85
2023/06/21 04:35:46;;;;;;;4.03;2.03;;;12.90;99.90;;;;;;4898532;29;20592;-85
2023/06/21 04:38:17;;;;;;;2.63;1.50;;;12.90;99.90;;;;;;4895565;29;20232;-87
2023/06/21 04:40:48;;;;;;;5.47;1.67;;;12.80;99.90;;;;;;4896506;29;20292;-87
2023/06/21 04:43:21;;;;;;;3.00;1.40;;;12.90;99.90;;;;;;4891646;29;20210;-85
2023/06/21 04:45:52;;;;;;;3.37;1.70;;;12.90;99.90;;;;;;4899431;29;20224;-86
2023/06/21 04:48:25;;;;;;;3.77;1.47;;;12.80;99.90;;;;;;4896912;29;20251;-87
2023/06/21 04:50:57;;;;;;;3.80;1.47;;;12.80;99.90;;;;;;4897767;29;20245;-85
2023/06/21 04:53:29;;;;;;;1.80;1.47;;;12.80;99.90;;;;;;4893513;29;20293;-84
2023/06/21 04:56:01;;;;;;;3.17;1.53;;;12.80;99.90;;;;;;4898340;29;20638;-86
2023/06/21 04:58:37;;;;;;;2.27;1.40;;;12.90;99.90;;;;;;4896317;29;20212;-88
2023/06/21 05:01:08;;;;;;;4.43;1.77;;;12.80;99.90;;;;;;4895024;29;20214;-86
2023/06/21 05:03:47;;;;;;;3.70;1.83;;;12.80;99.90;;;;;;4895063;29;20308;-85
2023/06/21 05:06:20;;;;;;;3.77;2.13;;;12.80;99.90;;;;;;4882933;29;20213;-86
2023/06/21 05:08:51;;;;;;;2.93;2.07;;;12.80;99.90;;;;;;4895203;29;20305;-86
2023/06/21 05:11:22;;;;;;;5.80;2.97;;;12.80;99.90;;;;;;4896600;29;20690;-86
2023/06/21 05:13:53;;;;;;;3.43;2.30;;;12.80;99.90;;;;;;4895774;29;20619;-85
2023/06/21 05:16:24;;;;;;;4.90;2.53;;;12.80;99.90;;;;;;4902256;29;20221;-86
2023/06/21 05:18:57;;;;;;;4.97;2.47;;;12.80;99.90;;;;;;4893488;29;20214;-85
2023/06/21 05:21:28;;;;;;;4.13;2.20;;;12.80;99.90;;;;;;4897803;29;20663;-85
2023/06/21 05:23:59;;;;;;;4.77;1.93;;;12.80;99.90;;;;;;4890217;29;20203;-85
2023/06/21 05:26:31;;;;;;;4.77;2.00;;;12.80;99.90;;;;;;4898773;29;20217;-96
2023/06/21 05:31:49;;;;;;;4.07;1.83;;;12.80;99.90;;;;;;5596988;23;20787;-96
2023/06/21 05:42:27;;;;;;;3.83;1.80;;;12.60;99.90;;;;;;5201792;23;20271;-96
2023/06/21 05:53:09;;;;;;;2.63;1.60;;;12.50;99.90;;;;;;5407631;23;10002704;-96
2023/06/21 06:03:35;;;;;;;5.10;2.03;;;12.30;99.90;;;;;;4933138;28;20222;-96
2023/06/21 06:06:18;;;;;;;2.47;1.70;;;12.20;99.90;;;;;;4936668;29;20216;-95
2023/06/21 06:08:51;;;;;;;7.30;1.90;;;12.20;99.90;;;;;;4931772;29;20611;-96
2023/06/21 06:11:22;;;;;;;4.07;1.80;;;12.20;99.90;;;;;;4946244;29;20238;-96
2023/06/21 06:13:55;;;;;;;2.53;1.60;;;12.10;99.90;;;;;;4925954;29;20292;-96
2023/06/21 06:16:28;;;;;;;3.03;1.53;;;12.10;99.90;;;;;;4945053;29;20235;-96
2023/06/21 06:19:03;;;;;;;3.80;1.53;;;12.10;99.90;;;;;;4933913;29;20225;-96
2023/06/21 06:35:08;;;;;;;3.53;2.00;;;12.20;99.90;;;;;;6367856;22;20289;-96
2023/06/21 06:49:46;;;;;;;4.83;1.77;;;12.30;99.90;;;;;;5135053;27;20551;-96
2023/06/21 06:52:20;;;;;;;2.73;1.70;;;12.40;99.90;;;;;;5147422;27;20623;-96
2023/06/21 06:54:51;;;;;;;3.33;1.90;;;12.40;99.90;;;;;;5139472;27;20205;-96
2023/06/21 06:57:25;;;;;;;3.20;1.77;;;12.40;99.90;;;;;;5149768;27;20266;-96
2023/06/21 07:00:11;;;;;;;3.90;1.90;;;12.40;99.90;;;;;;5136975;28;20225;-96
2023/06/21 07:02:42;;;;;;;2.30;1.60;;;12.40;99.90;;;;;;5146844;27;20212;-96
2023/06/21 07:05:18;;;;;;;5.30;1.77;;;12.30;99.90;;;;;;5168832;27;20201;-96
2023/06/21 07:07:52;;;;;;;2.13;1.60;;;12.40;99.90;;;;;;5156039;27;20220;-96
2023/06/21 07:10:24;;;;;;;3.23;1.40;;;12.40;99.90;;;;;;5177418;27;20283;-96
2023/06/21 07:12:59;;;;;;;1.83;1.50;;;12.50;99.90;;;;;;5183094;27;20192;-96
2023/06/21 07:15:31;;;;;;;2.70;1.83;;;12.50;99.90;;;;;;5167493;27;20575;-96
2023/06/21 07:18:03;;;;;;;4.30;1.70;;;12.40;99.90;;;;;;5162149;27;20215;-96
2023/06/21 07:20:38;;;;;;;4.80;2.07;;;12.50;99.90;;;;;;5160337;27;20237;-96
2023/06/21 07:23:11;;;;;;;5.87;1.77;;;12.50;99.90;;;;;;5153632;27;20204;-96
2023/06/21 07:25:43;;;;;;;2.70;1.80;;;12.50;99.90;;;;;;5133542;28;20213;-96
2023/06/21 07:28:15;;;;;;;2.37;1.57;;;12.50;99.90;;;;;;5154992;27;20313;-96
2023/06/21 07:30:47;;;;;;;3.57;1.67;;;12.50;99.90;;;;;;5154092;27;20235;-96
2023/06/21 07:33:19;;;;;;;4.60;1.80;;;12.50;99.90;;;;;;5153369;27;20228;-96
2023/06/21 07:35:52;;;;;;;5.33;1.80;;;12.50;99.90;;;;;;5151866;27;20209;-96
2023/06/21 07:38:23;;;;;;;2.30;1.67;;;12.50;99.90;;;;;;5151965;27;20623;-96
2023/06/21 07:40:56;;;;;;;5.27;1.57;;;12.50;99.90;;;;;;5160597;27;20260;-96
2023/06/21 07:43:28;;;;;;;4.63;1.97;;;12.50;99.90;;;;;;5153563;27;20915;-96
2023/06/21 07:46:00;;;;;;;2.47;1.70;;;12.50;99.90;;;;;;5138084;27;20204;-96
2023/06/21 07:48:45;;;;;;;3.10;1.70;;;12.50;99.90;;;;;;5133068;27;20222;-96
2023/06/21 07:51:18;;;;;;;2.63;1.40;;;12.50;99.90;;;;;;5140868;27;20201;-96
2023/06/21 07:53:50;;;;;;;3.43;1.40;;;12.50;99.90;;;;;;5157100;27;20212;-94
2023/06/21 07:56:22;;;;;;;2.37;1.30;;;12.60;99.90;;;;;;5158652;27;20279;-95
2023/06/21 07:58:54;;;;;;;2.07;1.63;;;12.60;99.90;;;;;;5150895;27;20307;-95
2023/06/21 08:01:26;;;;;;;1.87;1.30;;;12.60;99.90;;;;;;5133430;27;20217;-95
2023/06/21 08:03:59;;;;;;;3.10;1.40;;;12.60;99.90;;;;;;5136739;27;20235;-94
2023/06/21 08:06:38;;;;;;;3.43;1.40;;;12.60;99.90;;;;;;5147364;27;20247;-96
2023/06/21 08:09:11;;;;;;;2.60;1.47;;;12.60;99.90;;;;;;5126139;27;20236;-96
2023/06/21 08:11:43;;;;;;;3.17;1.30;;;12.60;99.90;;;;;;5125507;27;20242;-96
2023/06/21 08:14:15;;;;;;;2.10;1.50;;;12.60;99.90;;;;;;5121337;27;20277;-95
2023/06/21 08:16:47;;;;;;;3.90;1.83;;;12.60;99.90;;;;;;5138931;27;20229;-96
2023/06/21 08:19:19;;;;;;;2.70;1.50;;;12.60;99.90;;;;;;5121481;27;20210;-96
2023/06/21 08:21:53;;;;;;;4.23;1.77;;;12.60;99.90;;;;;;5119405;28;20266;-95
2023/06/21 08:24:27;;;;;;;2.60;1.33;;;12.60;99.90;;;;;;5135812;27;20222;-96
2023/06/21 08:26:58;;;;;;;2.60;1.63;;;12.60;99.90;;;;;;5135290;27;20252;-96
2023/06/21 08:29:30;;;;;;;6.13;1.90;;;12.60;99.90;;;;;;5132878;27;20264;-96
2023/06/21 08:32:10;;;;;;;2.87;1.73;;;12.50;99.90;;;;;;5145827;27;20968;-96
2023/06/21 08:34:52;;;;;;;3.40;1.73;;;12.50;99.90;;;;;;5143570;27;20273;-96
2023/06/21 08:37:32;;;;;;;3.90;1.50;;;12.50;99.90;;;;;;5154849;27;20249;-96
2023/06/21 08:40:04;;;;;;;3.57;1.50;;;12.50;99.90;;;;;;5153223;27;20201;-96
2023/06/21 08:42:41;;;;;;;4.97;1.93;;;12.50;99.90;;;;;;5134990;27;20182;-96
2023/06/21 08:45:16;;;;;;;2.93;1.70;;;12.50;99.90;;;;;;5142817;27;20194;-96
2023/06/21 08:47:51;;;;;;;2.73;1.53;;;12.50;99.90;;;;;;5140253;27;20643;-96
2023/06/21 08:50:25;;;;;;;3.47;1.60;;;12.40;99.90;;;;;;5143621;27;20218;-96
2023/06/21 08:53:07;;;;;;;4.33;1.53;;;12.40;99.90;;;;;;5123794;28;20210;-96
2023/06/21 08:55:45;;;;;;;2.63;1.57;;;12.20;99.90;;;;;;5128775;27;20229;-96
2023/06/21 08:58:24;;;;;;;2.40;1.57;;;12.20;99.90;;;;;;5151387;27;20225;-96
2023/06/21 09:01:00;;;;;;;3.07;1.60;;;12.10;99.90;;;;;;5164149;27;20211;-96
2023/06/21 09:03:44;;;;;;;6.23;1.60;;;12.10;99.90;;;;;;5151721;27;20222;-96
2023/06/21 09:06:22;;;;;;;2.90;1.60;;;12.10;99.90;;;;;;5137002;28;20198;-96
2023/06/21 09:08:58;;;;;;;2.60;1.60;;;12.10;99.90;;;;;;5152773;27;20209;-96
2023/06/21 09:11:30;;;;;;;2.87;1.80;;;12.10;99.90;;;;;;5156643;27;20181;-96
2023/06/21 09:14:02;;;;;;;2.63;1.53;;;12.00;99.90;;;;;;5137409;27;20237;-96
2023/06/21 09:16:37;;;;;;;4.53;1.80;;;12.10;99.90;;;;;;5153046;27;20201;-96
2023/06/21 09:19:09;;;;;;;2.80;1.30;;;12.00;99.90;;;;;;5149768;27;20312;-96
2023/06/21 09:21:43;;;;;;;4.13;1.43;;;12.00;99.90;;;;;;5140868;27;20204;-96
2023/06/21 09:24:17;;;;;;;2.43;1.33;;;11.90;99.90;;;;;;5140578;27;20209;-96
2023/06/21 09:26:49;;;;;;;1.93;1.40;;;11.90;99.90;;;;;;5141503;27;20204;-95
2023/06/21 09:29:23;;;;;;;7.03;1.93;;;11.80;99.90;;;;;;5137480;27;20228;-96
2023/06/21 09:31:55;;;;;;;3.93;1.67;;;11.80;99.90;;;;;;5138340;27;20224;-96
2023/06/21 09:34:29;;;;;;;3.30;1.77;;;11.80;99.90;;;;;;5120524;27;20598;-96
2023/06/21 09:37:03;;;;;;;5.23;1.43;;;11.70;99.90;;;;;;5123179;28;20289;-96
2023/06/21 09:39:37;;;;;;;1.83;1.47;;;11.70;99.90;;;;;;5136539;27;20205;-96
2023/06/21 09:42:12;;;;;;;7.00;1.57;;;11.70;99.90;;;;;;5144704;27;20209;-96
2023/06/21 09:44:55;;;;;;;3.70;1.70;;;11.70;99.90;;;;;;5145714;27;20204;-96
2023/06/21 09:47:33;;;;;;;4.03;1.83;;;11.50;99.90;;;;;;5141132;27;20285;-96
2023/06/21 09:50:10;;;;;;;2.13;1.73;;;11.60;99.90;;;;;;5135646;27;20221;-96
2023/06/21 09:52:45;;;;;;;4.97;1.80;;;11.60;99.90;;;;;;5119841;27;20208;-96
2023/06/21 09:55:20;;;;;;;2.77;1.60;;;11.60;99.90;;;;;;5118778;28;20213;-96
2023/06/21 09:57:57;;;;;;;5.87;1.73;;;11.60;99.90;;;;;;5128073;27;20205;-96
2023/06/21 10:00:39;;;;;;;2.47;1.33;;;11.60;99.90;;;;;;5138548;27;20619;-96
2023/06/21 10:03:14;;;;;;;2.07;1.60;;;11.60;99.90;;;;;;5138752;27;20209;-96
2023/06/21 10:06:01;;;;;;;2.70;1.60;;;11.60;99.90;;;;;;5117368;28;20206;-96
2023/06/21 10:08:36;;;;;;;2.50;1.40;;;11.50;99.90;;;;;;5114160;28;20255;-96
2023/06/21 10:11:17;;;;;;;3.13;1.80;;;11.50;99.90;;;;;;5152387;27;20232;-96
2023/06/21 10:13:49;;;;;;;3.40;1.60;;;11.40;99.90;;;;;;5134063;27;20244;-96
2023/06/21 10:16:23;;;;;;;2.57;1.70;;;11.40;99.90;;;;;;5135510;27;20201;-96
2023/06/21 10:18:56;;;;;;;2.03;1.87;;;11.40;99.90;;;;;;5115064;27;20293;-96
2023/06/21 10:24:16;;;;;;;2.33;1.60;;;11.40;99.90;;;;;;5125243;27;20214;-96
2023/06/21 10:26:52;;;;;;;2.67;1.83;;;11.50;99.90;;;;;;5133239;27;20201;-96
2023/06/21 10:29:25;;;;;;;6.57;1.63;;;11.50;99.90;;;;;;5134881;27;20618;-96
2023/06/21 10:32:01;;;;;;;1.97;1.50;;;11.60;99.90;;;;;;5133506;27;20205;-96
2023/06/21 10:34:45;;;;;;;2.67;1.70;;;11.70;99.90;;;;;;5116931;28;20362;-96
2023/06/21 10:37:23;;;;;;;2.30;1.80;;;11.60;99.90;;;;;;5131295;27;20218;-96
2023/06/21 10:39:56;;;;;;;2.33;1.80;;;11.70;99.90;;;;;;5138506;27;20212;-96
2023/06/21 10:42:42;;;;;;;2.60;1.80;;;11.70;99.90;;;;;;5128532;27;20202;-96
2023/06/21 10:45:16;;;;;;;4.33;1.77;;;11.70;99.90;;;;;;5139581;27;20204;-96
2023/06/21 10:47:53;;;;;;;4.47;1.73;;;11.80;99.90;;;;;;5152383;27;20243;-96
2023/06/21 10:50:26;;;;;;;3.50;1.90;;;11.80;99.90;;;;;;5137709;28;20232;-96
2023/06/21 10:53:02;;;;;;;4.20;2.20;;;11.80;99.90;;;;;;5126357;27;20205;-96
2023/06/21 10:55:34;;;;;;;4.10;2.27;;;11.80;99.90;;;;;;5132597;28;20212;-96
2023/06/21 10:58:09;;;;;;;3.23;1.97;;;11.70;99.90;;;;;;5135065;28;20300;-96
2023/06/21 11:00:47;;;;;;;3.97;2.40;;;11.70;99.90;;;;;;5117586;28;20225;-96
2023/06/21 11:06:26;;;;;;;4.27;2.27;;;11.60;99.90;;;;;;5121222;28;20340;-96
2023/06/21 11:11:56;;;;;;;2.33;2.10;;;11.70;99.90;;;;;;5150438;27;20201;-96
2023/06/21 11:14:32;;;;;;;4.33;2.23;;;11.70;99.90;;;;;;5121409;28;20300;-96
2023/06/21 11:17:12;;;;;;;2.50;1.93;;;11.80;99.90;;;;;;5126412;28;20201;-96
2023/06/21 11:19:47;;;;;;;4.37;2.30;;;11.80;99.90;;;;;;5120228;27;20205;-96
2023/06/21 11:22:22;;;;;;;3.87;1.80;;;11.80;99.90;;;;;;5124258;28;20202;-96
2023/06/21 11:25:00;;;;;;;2.73;1.93;;;11.80;99.90;;;;;;5134921;28;20236;-96
2023/06/21 11:27:34;;;;;;;5.77;2.17;;;11.70;99.90;;;;;;5119883;28;20229;-96
2023/06/21 11:30:12;;;;;;;3.30;2.23;;;11.70;99.90;;;;;;5139690;27;20240;-96
2023/06/21 11:32:56;;;;;;;4.57;2.20;;;11.80;99.90;;;;;;5117426;28;20235;-96
2023/06/21 11:35:50;;;;;;;4.47;2.30;;;11.80;99.90;;;;;;5138206;27;20198;-96
2023/06/21 11:38:24;;;;;;;2.43;1.60;;;11.80;99.90;;;;;;5123062;27;20228;-96
2023/06/21 11:40:56;;;;;;;2.80;1.83;;;11.80;99.90;;;;;;5123474;27;20209;-96
2023/06/21 11:43:35;;;;;;;3.53;2.10;;;11.80;99.90;;;;;;5134848;27;20205;-96
2023/06/21 11:46:28;;;;;;;3.10;1.77;;;11.80;99.90;;;;;;5134153;27;20200;-96
2023/06/21 11:49:13;;;;;;;2.50;1.70;;;11.70;99.90;;;;;;5128534;27;20714;-97
2023/06/21 11:51:52;;;;;;;4.57;2.07;;;11.70;99.90;;;;;;5143777;27;20771;-96
2023/06/21 11:54:33;;;;;;;3.13;2.00;;;11.70;99.90;;;;;;5150958;27;20211;-96
2023/06/21 11:57:07;;;;;;;3.47;1.90;;;11.70;99.90;;;;;;5133581;27;20209;-96
2023/06/21 11:59:39;;;;;;;4.50;1.97;;;11.70;99.90;;;;;;5138046;27;20271;-96
2023/06/21 12:02:20;;;;;;;3.73;1.80;;;11.70;99.90;;;;;;5118800;28;20651;-96
2023/06/21 12:04:53;;;;;;;8.13;2.50;;;11.60;99.90;;;;;;5126538;27;20297;-96
2023/06/21 12:07:26;;;;;;;5.97;2.17;;;11.60;99.90;;;;;;5139857;27;20279;-96
2023/06/21 12:09:59;;;;;;;3.80;1.87;;;11.60;99.90;;;;;;5122045;27;20205;-96
2023/06/21 12:12:36;;;;;;;2.90;1.60;;;11.50;99.90;;;;;;5126218;27;20205;-96
2023/06/21 12:15:10;;;;;;;4.00;1.83;;;11.50;99.90;;;;;;5139392;27;20543;-95
2023/06/21 12:17:44;;;;;;;3.27;1.63;;;11.50;99.90;;;;;;5135144;27;20315;-96
2023/06/21 12:20:16;;;;;;;2.37;1.80;;;11.50;99.90;;;;;;5117184;28;20214;-96
2023/06/21 12:22:50;;;;;;;4.43;1.80;;;11.40;99.90;;;;;;5118005;27;20292;-96
2023/06/21 12:25:22;;;;;;;2.67;2.00;;;11.40;99.90;;;;;;5118406;28;20273;-96
2023/06/21 12:27:57;;;;;;;2.77;2.17;;;11.40;99.90;;;;;;5117693;28;20289;-94
2023/06/21 12:30:30;;;;;;;4.03;2.00;;;11.40;99.90;;;;;;5118558;27;20229;-95
2023/06/21 12:33:06;;;;;;;4.03;2.00;;;11.40;99.90;;;;;;5123628;27;20655;-96
2023/06/21 12:35:39;;;;;;;2.63;2.10;;;11.40;99.90;;;;;;5117168;27;20217;-96
2023/06/21 12:38:15;;;;;;;6.90;2.00;;;11.40;99.90;;;;;;5127550;27;20335;-95
2023/06/21 12:40:59;;;;;;;5.13;2.13;;;11.40;99.90;;;;;;5122828;27;20217;-96
2023/06/21 12:43:48;;;;;;;4.27;2.03;;;11.40;99.90;;;;;;5137709;27;20206;-96
2023/06/21 12:46:21;;;;;;;3.67;2.20;;;11.40;99.90;;;;;;5132644;27;20723;-96
2023/06/21 12:48:57;;;;;;;5.10;2.37;;;11.50;99.90;;;;;;5127597;27;20215;-96
2023/06/21 12:51:33;;;;;;;3.67;2.03;;;11.50;99.90;;;;;;5131519;27;20315;-96
2023/06/21 12:54:07;;;;;;;3.87;2.20;;;11.60;99.90;;;;;;5146528;27;20251;-96
2023/06/21 12:56:44;;;;;;;4.33;2.20;;;11.60;99.90;;;;;;5142841;27;20665;-96
2023/06/21 12:59:18;;;;;;;2.90;2.10;;;11.60;99.90;;;;;;5135884;27;20622;-96
2023/06/21 13:01:55;;;;;;;3.03;2.43;;;11.70;99.90;;;;;;5122963;28;20269;-96
2023/06/21 13:04:35;;;;;;;7.33;2.07;;;11.70;99.90;;;;;;5134611;27;20209;-95
2023/06/21 13:07:10;;;;;;;3.53;1.97;;;11.70;99.90;;;;;;5138037;27;20262;-96
2023/06/21 13:09:41;;;;;;;4.03;1.97;;;11.70;99.90;;;;;;5149304;27;20198;-96
2023/06/21 13:12:16;;;;;;;4.77;2.00;;;11.70;99.90;;;;;;5154239;27;20281;-96
2023/06/21 13:14:49;;;;;;;4.10;2.20;;;11.70;99.90;;;;;;5144365;27;20209;-96
2023/06/21 13:17:22;;;;;;;4.30;2.00;;;11.80;99.90;;;;;;5134437;27;20292;-96
2023/06/21 13:19:57;;;;;;;2.90;1.97;;;11.90;99.90;;;;;;5127853;27;20682;-96
2023/06/21 13:22:29;;;;;;;2.77;1.80;;;11.90;99.90;;;;;;5119800;27;21257;-96
2023/06/21 13:25:03;;;;;;;4.10;2.23;;;11.90;99.90;;;;;;5141013;27;20197;-96
2023/06/21 13:27:36;;;;;;;3.23;2.17;;;11.90;99.90;;;;;;5134737;27;20544;-96
2023/06/21 13:30:09;;;;;;;5.27;2.37;;;12.00;99.90;;;;;;5131434;27;20222;-96
2023/06/21 13:32:42;;;;;;;2.93;2.10;;;11.90;99.90;;;;;;5119536;27;20261;-96
2023/06/21 13:35:17;;;;;;;3.40;1.93;;;11.90;99.90;;;;;;5126258;27;20210;-96
2023/06/21 13:37:50;;;;;;;4.23;1.93;;;12.00;99.90;;;;;;5114254;28;20435;-96
2023/06/21 13:40:22;;;;;;;2.67;2.10;;;12.10;99.90;;;;;;5131063;27;20598;-96
2023/06/21 13:42:54;;;;;;;4.93;2.03;;;12.20;99.90;;;;;;5123462;27;20566;-96
2023/06/21 13:45:27;;;;;;;5.63;1.70;;;12.30;99.90;;;;;;5115829;28;20205;-96
2023/06/21 13:47:58;;;;;;;4.73;2.60;;;12.40;99.90;;;;;;5119627;27;20250;-96
2023/06/21 13:50:33;;;;;;;2.73;1.60;;;12.40;99.90;;;;;;5117389;27;20233;-96
2023/06/21 13:53:09;;;;;;;3.00;1.77;;;12.40;99.90;;;;;;5121840;27;20233;-96
2023/06/21 13:55:51;;;;;;;3.23;1.93;;;12.40;99.90;;;;;;5124174;27;20226;-96
2023/06/21 13:58:26;;;;;;;2.90;1.50;;;12.50;99.90;;;;;;5147605;27;20206;-96
2023/06/21 14:01:00;;;;;;;6.73;2.73;;;12.50;99.90;;;;;;5122108;27;20289;-96
2023/06/21 14:03:33;;;;;;;4.20;1.97;;;12.60;99.90;;;;;;5128214;27;20213;-96
2023/06/21 14:06:09;;;;;;;3.90;1.93;;;12.60;99.90;;;;;;5132423;27;20202;-96
2023/06/21 14:08:46;;;;;;;6.30;2.10;;;12.70;99.90;;;;;;5130418;27;20296;-96
2023/06/21 14:11:20;;;;;;;5.00;2.00;;;12.70;99.90;;;;;;5132529;27;20540;-96
2023/06/21 14:13:52;;;;;;;4.17;2.00;;;12.60;99.90;;;;;;5119636;27;20210;-96
2023/06/21 14:16:23;;;;;;;4.13;2.30;;;12.70;99.90;;;;;;5127037;27;20239;-96
2023/06/21 14:18:54;;;;;;;5.27;1.83;;;12.80;99.90;;;;;;5133815;27;20203;-95
2023/06/21 14:21:29;;;;;;;3.13;2.00;;;12.80;99.90;;;;;;5118532;27;20564;-96
2023/06/21 14:24:02;;;;;;;7.87;2.40;;;12.90;99.90;;;;;;5129057;27;20649;-96